createdAt,value
2024-02-17T00:00:11.690Z,-141.75
2024-02-17T00:02:38.848Z,-141.75
2024-02-17T00:05:07.991Z,-141.75
2024-02-17T00:07:35.034Z,-141.75
2024-02-17T00:10:02.254Z,-141.75
2024-02-17T00:12:29.483Z,-141.75
2024-02-17T00:14:56.962Z,-141.75
2024-02-17T00:17:31.371Z,-141.75
2024-02-17T00:20:00.986Z,-141.75
2024-02-17T00:22:30.706Z,-141.75
2024-02-17T00:25:00.118Z,-141.75
2024-02-17T00:27:30.459Z,-141.75
2024-02-17T00:29:59.851Z,-141.75
2024-02-17T00:32:26.850Z,-141.75
2024-02-17T00:34:53.974Z,-141.75
2024-02-17T00:37:20.922Z,-141.75
2024-02-17T00:39:47.925Z,-141.75
2024-02-17T00:42:15.174Z,-141.75
2024-02-17T00:44:49.315Z,-141.75
2024-02-17T00:47:16.323Z,-141.75
2024-02-17T00:49:43.501Z,-141.75
2024-02-17T00:52:13.530Z,-141.75
2024-02-17T00:54:40.659Z,-141.75
2024-02-17T00:57:08.061Z,-141.75
2024-02-17T00:59:35.233Z,-141.75
2024-02-17T01:02:02.976Z,-141.75
2024-02-17T01:04:30.145Z,-141.75
2024-02-17T01:06:57.249Z,-141.75
2024-02-17T01:09:24.351Z,-141.75
2024-02-17T01:11:54.755Z,-141.75
2024-02-17T01:14:24.452Z,-141.75
2024-02-17T01:16:51.539Z,-141.75
2024-02-17T01:19:18.832Z,-141.75
2024-02-17T01:21:48.499Z,-141.75
2024-02-17T01:24:18.027Z,-141.75
2024-02-17T01:26:45.241Z,-141.75
2024-02-17T01:29:13.748Z,-141.75
2024-02-17T01:31:40.894Z,-141.75
2024-02-17T01:34:12.941Z,-141.75
2024-02-17T01:36:42.598Z,-141.75
2024-02-17T01:39:12.385Z,-141.75
2024-02-17T01:41:41.606Z,-141.75
2024-02-17T01:44:11.635Z,-141.75
2024-02-17T01:46:39.262Z,-141.75
2024-02-17T01:49:06.884Z,-141.75
2024-02-17T01:51:35.815Z,-141.75
2024-02-17T01:54:05.652Z,-141.75
2024-02-17T01:56:38.860Z,-141.75
2024-02-17T01:59:06.171Z,-141.75
2024-02-17T02:01:34.868Z,-141.75
2024-02-17T02:04:02.104Z,-141.75
2024-02-17T02:06:32.143Z,-141.75
2024-02-17T02:09:02.291Z,-141.75
2024-02-17T02:11:29.509Z,-141.75
2024-02-17T02:14:20.077Z,-141.75
2024-02-17T02:16:49.613Z,-141.75
2024-02-17T02:19:19.947Z,-141.75
2024-02-17T02:21:49.414Z,-141.75
2024-02-17T02:24:16.338Z,-141.75
2024-02-17T02:26:45.505Z,-141.75
2024-02-17T02:29:12.451Z,-141.75
2024-02-17T02:31:39.372Z,-141.75
2024-02-17T02:34:08.653Z,-141.75
2024-02-17T02:36:37.991Z,-141.75
2024-02-17T02:39:09.274Z,-141.75
2024-02-17T02:41:38.373Z,-141.75
2024-02-17T02:44:05.402Z,-141.75
2024-02-17T02:46:33.999Z,-141.75
2024-02-17T02:49:03.204Z,-141.75
2024-02-17T02:51:30.209Z,-141.75
2024-02-17T02:53:57.454Z,-141.75
2024-02-17T02:56:26.845Z,-141.75
2024-02-17T02:58:58.938Z,-141.75
2024-02-17T03:01:27.997Z,-141.75
2024-02-17T03:03:59.450Z,-141.75
2024-02-17T03:06:26.587Z,-141.75
2024-02-17T03:08:53.607Z,-141.75
2024-02-17T03:11:20.494Z,-141.75
2024-02-17T03:13:47.914Z,-141.75
2024-02-17T03:16:25.281Z,-141.75
2024-02-17T03:18:55.642Z,-141.75
2024-02-17T03:21:25.902Z,-141.75
2024-02-17T03:23:52.751Z,-141.75
2024-02-17T03:26:21.857Z,-141.75
2024-02-17T03:28:48.871Z,-141.75
2024-02-17T03:31:15.805Z,-141.75
2024-02-17T03:33:42.849Z,-141.75
2024-02-17T03:36:14.569Z,-141.75
2024-02-17T03:38:41.463Z,-141.75
2024-02-17T03:41:08.444Z,-141.75
2024-02-17T03:43:37.507Z,-141.75
2024-02-17T03:46:06.917Z,-141.75
2024-02-17T03:48:35.412Z,-141.75
2024-02-17T03:51:04.958Z,-141.75
2024-02-17T03:53:35.311Z,-141.75
2024-02-17T03:56:02.876Z,-141.75
2024-02-17T03:58:32.037Z,-141.75
2024-02-17T04:00:59.208Z,-141.75
2024-02-17T04:03:32.755Z,-141.75
2024-02-17T04:05:59.888Z,-141.75
2024-02-17T04:08:29.019Z,-141.75
2024-02-17T04:10:59.730Z,-141.75
2024-02-17T04:13:31.577Z,-141.75
2024-02-17T04:15:58.526Z,-141.75
2024-02-17T04:18:28.099Z,-141.75
2024-02-17T04:20:54.988Z,-141.75
2024-02-17T04:23:21.888Z,-141.75
2024-02-17T04:25:53.603Z,-141.75
2024-02-17T04:28:22.973Z,-141.75
2024-02-17T04:30:49.971Z,-141.75
2024-02-17T04:33:19.756Z,-141.75
2024-02-17T04:35:46.906Z,-141.75
2024-02-17T04:38:15.349Z,-141.75
2024-02-17T04:40:43.278Z,-141.75
2024-02-17T04:43:10.202Z,-141.75
2024-02-17T04:45:37.077Z,-141.75
2024-02-17T04:48:04.179Z,-141.75
2024-02-17T04:50:31.085Z,-141.75
2024-02-17T04:52:57.978Z,-141.75
2024-02-17T04:55:27.861Z,-141.75
2024-02-17T04:57:54.684Z,-141.75
2024-02-17T05:00:23.768Z,-141.75
2024-02-17T05:02:50.662Z,-141.75
2024-02-17T05:05:18.182Z,-141.75
2024-02-17T05:07:45.206Z,-141.75
2024-02-17T05:10:14.810Z,-141.75
2024-02-17T05:12:44.588Z,-141.75
2024-02-17T05:15:11.782Z,-141.75
2024-02-17T05:17:38.657Z,-141.75
2024-02-17T05:20:08.252Z,-141.75
2024-02-17T05:22:35.181Z,-141.75
2024-02-17T05:25:02.032Z,-141.75
2024-02-17T05:27:28.913Z,-141.75
2024-02-17T05:29:55.885Z,-141.75
2024-02-17T05:32:22.772Z,-141.75
2024-02-17T05:34:49.760Z,-141.75
2024-02-17T05:37:16.644Z,-141.75
2024-02-17T05:39:47.796Z,-141.75
2024-02-17T05:42:16.958Z,13.70
2024-02-17T05:44:46.155Z,11.88
2024-02-17T05:47:13.147Z,11.98
2024-02-17T05:49:40.040Z,12.25
2024-02-17T05:52:09.376Z,12.00
2024-02-17T05:54:36.816Z,12.12
2024-02-17T05:57:06.162Z,11.77
2024-02-17T05:59:35.764Z,12.12
2024-02-17T06:02:05.044Z,12.18
2024-02-17T06:04:34.250Z,12.09
2024-02-17T06:07:04.030Z,12.07
2024-02-17T06:09:31.032Z,12.26
2024-02-17T06:11:58.019Z,12.05
2024-02-17T06:14:24.874Z,12.20
2024-02-17T06:16:51.934Z,12.12
2024-02-17T06:19:37.385Z,12.07
2024-02-17T06:22:04.376Z,12.10
2024-02-17T06:24:31.273Z,12.07
2024-02-17T06:26:58.126Z,12.16
2024-02-17T06:29:24.983Z,11.72
2024-02-17T06:31:51.838Z,12.07
2024-02-17T06:34:18.798Z,12.06
2024-02-17T06:36:47.796Z,12.06
2024-02-17T06:39:14.881Z,12.12
2024-02-17T06:41:44.171Z,12.02
2024-02-17T06:44:10.984Z,12.18
2024-02-17T06:46:37.842Z,12.15
2024-02-17T06:49:04.740Z,12.09
2024-02-17T06:51:31.688Z,12.22
2024-02-17T06:54:01.101Z,12.07
2024-02-17T06:56:31.503Z,12.22
2024-02-17T06:58:58.592Z,12.18
2024-02-17T07:01:25.478Z,11.77
2024-02-17T07:03:52.375Z,12.22
2024-02-17T07:06:20.634Z,12.00
2024-02-17T07:08:47.927Z,12.13
2024-02-17T07:11:17.397Z,12.09
2024-02-17T07:13:44.783Z,12.07
2024-02-17T07:16:12.487Z,12.21
2024-02-17T07:18:43.927Z,11.94
2024-02-17T07:21:10.944Z,11.94
2024-02-17T07:23:37.788Z,12.21
2024-02-17T07:26:05.369Z,12.21
2024-02-17T07:28:37.556Z,11.93
2024-02-17T07:31:04.759Z,12.03
2024-02-17T07:33:31.948Z,12.03
2024-02-17T07:36:01.194Z,11.99
2024-02-17T07:38:28.147Z,11.97
2024-02-17T07:40:57.488Z,11.87
2024-02-17T07:43:24.306Z,12.03
2024-02-17T07:45:53.538Z,11.99
2024-02-17T07:48:20.881Z,11.82
2024-02-17T07:50:47.880Z,11.97
2024-02-17T07:53:14.731Z,11.92
2024-02-17T07:55:43.934Z,11.99
2024-02-17T07:58:13.016Z,11.79
2024-02-17T08:00:41.981Z,11.67
2024-02-17T08:03:08.949Z,11.85
2024-02-17T08:05:40.379Z,11.93
2024-02-17T08:08:07.699Z,11.90
2024-02-17T08:10:34.653Z,11.37
2024-02-17T08:13:01.714Z,11.85
2024-02-17T08:15:31.047Z,11.95
2024-02-17T08:17:57.942Z,11.89
2024-02-17T08:20:24.885Z,11.77
2024-02-17T08:22:51.824Z,11.95
2024-02-17T08:25:18.768Z,11.80
2024-02-17T08:27:46.688Z,11.88
2024-02-17T08:30:13.932Z,11.49
2024-02-17T08:32:43.469Z,11.81
2024-02-17T08:35:12.114Z,11.87
2024-02-17T08:37:39.232Z,11.87
2024-02-17T08:40:06.592Z,11.67
2024-02-17T08:42:33.702Z,11.78
2024-02-17T08:45:02.798Z,12.22
2024-02-17T08:47:32.689Z,12.10
2024-02-17T08:50:01.995Z,12.03
2024-02-17T08:52:31.263Z,11.98
2024-02-17T08:55:00.180Z,11.97
2024-02-17T08:57:29.664Z,11.82
2024-02-17T09:00:01.340Z,11.82
2024-02-17T09:02:28.230Z,11.90
2024-02-17T09:04:57.371Z,11.92
2024-02-17T09:07:31.421Z,11.91
2024-02-17T09:10:00.623Z,11.90
2024-02-17T09:12:32.100Z,11.91
2024-02-17T09:15:05.880Z,11.90
2024-02-17T09:17:35.007Z,11.90
2024-02-17T09:20:09.894Z,11.88
2024-02-17T09:22:39.957Z,11.64
2024-02-17T09:25:07.532Z,11.84
2024-02-17T09:27:34.444Z,11.84
2024-02-17T09:30:05.697Z,11.78
2024-02-17T09:32:35.187Z,11.69
2024-02-17T09:35:09.179Z,11.84
2024-02-17T09:37:36.221Z,11.77
2024-02-17T09:40:09.445Z,11.82
2024-02-17T09:42:38.808Z,11.75
2024-02-17T09:45:10.912Z,11.82
2024-02-17T09:47:48.059Z,11.82
2024-02-17T09:50:21.445Z,11.79
2024-02-17T09:52:53.288Z,11.78
2024-02-17T09:55:23.837Z,11.71
2024-02-17T09:57:56.074Z,11.76
2024-02-17T10:00:27.831Z,11.78
2024-02-17T10:02:57.467Z,11.58
2024-02-17T10:05:29.351Z,11.70
2024-02-17T10:08:01.448Z,11.76
2024-02-17T10:10:33.126Z,11.65
2024-02-17T10:13:04.942Z,11.69
2024-02-17T10:15:36.585Z,11.78
2024-02-17T10:18:08.577Z,11.76
2024-02-17T10:20:40.268Z,11.60
2024-02-17T10:23:15.399Z,11.64
2024-02-17T10:25:45.301Z,11.55
2024-02-17T10:28:12.550Z,11.78
2024-02-17T10:30:49.028Z,11.79
2024-02-17T10:33:21.347Z,11.78
2024-02-17T10:35:53.582Z,11.83
2024-02-17T10:38:23.018Z,11.83
2024-02-17T10:40:56.895Z,11.82
2024-02-17T10:43:26.798Z,11.84
2024-02-17T10:45:57.090Z,11.58
2024-02-17T10:48:28.191Z,11.79
2024-02-17T10:50:57.491Z,11.86
2024-02-17T10:53:54.306Z,11.90
2024-02-17T10:56:31.300Z,11.74
2024-02-17T10:59:04.560Z,11.74
2024-02-17T11:01:32.204Z,11.93
2024-02-17T11:04:02.782Z,11.97
2024-02-17T11:06:31.429Z,11.85
2024-02-17T11:09:03.148Z,11.91
2024-02-17T11:11:32.673Z,11.99
2024-02-17T11:14:44.738Z,12.00
2024-02-17T11:17:16.366Z,11.96
2024-02-17T11:19:49.059Z,11.80
2024-02-17T11:22:30.060Z,11.96
2024-02-17T11:25:02.259Z,11.92
2024-02-17T11:27:35.426Z,11.95
2024-02-17T11:30:08.175Z,11.95
2024-02-17T11:32:40.744Z,11.78
2024-02-17T11:35:12.796Z,11.91
2024-02-17T11:37:42.630Z,11.92
2024-02-17T11:40:10.635Z,11.86
2024-02-17T11:42:45.900Z,11.94
2024-02-17T11:45:17.802Z,11.93
2024-02-17T11:47:49.395Z,11.94
2024-02-17T11:50:19.602Z,11.97
2024-02-17T11:52:50.898Z,11.99
2024-02-17T11:55:21.271Z,11.99
2024-02-17T11:58:10.402Z,12.01
2024-02-17T12:00:57.037Z,11.93
2024-02-17T12:03:33.489Z,11.97
2024-02-17T12:06:04.515Z,12.01
2024-02-17T12:08:40.601Z,11.90
2024-02-17T12:11:13.504Z,12.06
2024-02-17T12:13:45.326Z,12.04
2024-02-17T12:16:12.808Z,12.05
2024-02-17T12:18:41.008Z,12.09
2024-02-17T12:21:17.878Z,12.12
2024-02-17T12:23:48.212Z,12.13
2024-02-17T12:26:45.076Z,12.15
2024-02-17T12:29:15.592Z,12.16
2024-02-17T12:31:53.181Z,12.04
2024-02-17T12:34:28.030Z,12.20
2024-02-17T12:37:00.450Z,12.19
2024-02-17T12:39:27.762Z,12.20
2024-02-17T12:42:09.210Z,12.25
2024-02-17T12:44:40.735Z,12.24
2024-02-17T12:47:17.757Z,12.29
2024-02-17T12:49:47.313Z,12.30
2024-02-17T12:52:19.425Z,12.23
2024-02-17T12:54:48.488Z,12.35
2024-02-17T12:57:20.249Z,12.38
2024-02-17T12:59:51.803Z,12.37
2024-02-17T13:02:18.731Z,12.39
2024-02-17T13:04:45.630Z,12.40
2024-02-17T13:07:17.493Z,12.43
2024-02-17T13:09:47.150Z,12.42
2024-02-17T13:12:14.238Z,12.43
2024-02-17T13:14:43.521Z,12.42
2024-02-17T13:17:12.932Z,12.45
2024-02-17T13:19:44.664Z,12.46
2024-02-17T13:22:14.435Z,12.50
2024-02-17T13:24:44.120Z,12.41
2024-02-17T13:27:13.562Z,12.49
2024-02-17T13:29:42.632Z,12.41
2024-02-17T13:32:11.844Z,12.41
2024-02-17T13:34:43.538Z,12.51
2024-02-17T13:37:12.857Z,12.51
2024-02-17T13:39:47.222Z,12.50
2024-02-17T13:42:14.104Z,12.45
2024-02-17T13:44:44.813Z,12.51
2024-02-17T13:47:19.270Z,12.54
2024-02-17T13:49:53.641Z,12.53
2024-02-17T13:52:20.729Z,12.52
2024-02-17T13:54:50.062Z,12.42
2024-02-17T13:57:17.062Z,12.59
2024-02-17T13:59:46.765Z,12.59
2024-02-17T14:02:18.700Z,12.61
2024-02-17T14:04:47.837Z,12.61
2024-02-17T14:07:14.762Z,12.61
2024-02-17T14:09:44.350Z,12.60
2024-02-17T14:12:19.008Z,12.61
2024-02-17T14:14:53.235Z,12.63
2024-02-17T14:17:28.793Z,12.63
2024-02-17T14:20:02.563Z,12.63
2024-02-17T14:22:34.270Z,12.61
2024-02-17T14:25:01.227Z,12.61
2024-02-17T14:27:30.755Z,12.63
2024-02-17T14:30:01.970Z,12.62
2024-02-17T14:32:34.411Z,12.43
2024-02-17T14:35:01.652Z,12.60
2024-02-17T14:37:30.938Z,12.61
2024-02-17T14:39:59.613Z,12.61
2024-02-17T14:42:28.962Z,12.56
2024-02-17T14:45:03.432Z,12.54
2024-02-17T14:47:30.493Z,12.61
2024-02-17T14:50:02.284Z,12.65
2024-02-17T14:52:32.170Z,12.66
2024-02-17T14:55:04.031Z,12.63
2024-02-17T14:57:33.459Z,12.66
2024-02-17T15:00:02.789Z,12.64
2024-02-17T15:02:29.620Z,12.65
2024-02-17T15:04:58.898Z,12.63
2024-02-17T15:07:28.196Z,12.54
2024-02-17T15:09:59.641Z,12.64
2024-02-17T15:12:27.560Z,12.55
2024-02-17T15:14:59.569Z,12.62
2024-02-17T15:17:31.271Z,12.66
2024-02-17T15:20:01.909Z,12.64
2024-02-17T15:22:33.683Z,12.65
2024-02-17T15:25:00.858Z,12.63
2024-02-17T15:27:32.572Z,12.55
2024-02-17T15:30:03.833Z,12.56
2024-02-17T15:32:30.838Z,12.64
2024-02-17T15:35:00.068Z,12.64
2024-02-17T15:37:29.660Z,12.65
2024-02-17T15:40:02.236Z,12.64
2024-02-17T15:42:30.091Z,12.65
2024-02-17T15:45:04.117Z,12.64
2024-02-17T15:47:33.449Z,12.65
2024-02-17T15:50:02.618Z,12.56
2024-02-17T15:52:31.825Z,12.65
2024-02-17T15:55:03.523Z,12.63
2024-02-17T15:57:36.203Z,12.63
2024-02-17T16:00:06.211Z,12.63
2024-02-17T16:02:38.385Z,12.61
2024-02-17T16:05:07.405Z,12.52
2024-02-17T16:07:39.240Z,12.62
2024-02-17T16:10:11.106Z,12.61
2024-02-17T16:12:47.877Z,12.61
2024-02-17T16:15:20.292Z,12.59
2024-02-17T16:17:54.272Z,12.58
2024-02-17T16:20:26.519Z,12.51
2024-02-17T16:22:53.435Z,12.49
2024-02-17T16:25:20.579Z,12.50
2024-02-17T16:27:49.743Z,12.50
2024-02-17T16:30:21.609Z,12.50
2024-02-17T16:32:52.196Z,12.46
2024-02-17T16:35:21.932Z,12.45
2024-02-17T16:37:51.115Z,12.29
2024-02-17T16:40:20.259Z,12.29
2024-02-17T16:42:49.850Z,12.28
2024-02-17T16:45:19.057Z,12.24
2024-02-17T16:47:48.738Z,12.20
2024-02-17T16:50:15.730Z,12.00
2024-02-17T16:52:42.762Z,12.11
2024-02-17T16:55:10.299Z,12.06
2024-02-17T16:57:41.584Z,11.96
2024-02-17T17:00:13.493Z,11.95
2024-02-17T17:02:42.952Z,11.91
2024-02-17T17:05:15.978Z,11.84
2024-02-17T17:07:48.093Z,11.75
2024-02-17T17:10:20.208Z,11.77
2024-02-17T17:12:51.977Z,11.68
2024-02-17T17:15:19.157Z,11.53
2024-02-17T17:17:48.342Z,11.64
2024-02-17T17:20:19.301Z,11.64
2024-02-17T17:22:53.574Z,11.59
2024-02-17T17:25:23.131Z,11.49
2024-02-17T17:27:54.909Z,11.53
2024-02-17T17:30:27.028Z,11.43
2024-02-17T17:32:54.097Z,11.45
2024-02-17T17:35:21.458Z,11.34
2024-02-17T17:37:48.521Z,11.18
2024-02-17T17:40:15.583Z,11.33
2024-02-17T17:42:52.652Z,11.32
2024-02-17T17:45:26.300Z,11.29
2024-02-17T17:47:53.630Z,11.49
2024-02-17T17:50:24.588Z,11.42
2024-02-17T17:52:56.364Z,11.34
2024-02-17T17:55:24.470Z,10.77
2024-02-17T17:57:52.390Z,10.65
2024-02-17T18:00:20.531Z,10.57
2024-02-17T18:02:48.084Z,10.11
2024-02-17T18:05:15.859Z,9.93
2024-02-17T18:07:43.584Z,10.48
2024-02-17T18:10:11.056Z,10.38
2024-02-17T18:12:42.200Z,10.55
2024-02-17T18:15:11.366Z,10.71
2024-02-17T18:17:38.719Z,10.86
2024-02-17T18:20:14.913Z,10.95
2024-02-17T18:22:44.499Z,10.58
2024-02-17T18:25:15.260Z,10.85
2024-02-17T18:27:42.334Z,10.78
2024-02-17T18:30:09.407Z,10.77
2024-02-17T18:32:37.804Z,10.79
2024-02-17T18:35:07.963Z,10.57
2024-02-17T18:37:39.942Z,10.70
2024-02-17T18:40:13.942Z,10.64
2024-02-17T18:42:45.496Z,10.61
2024-02-17T18:45:12.427Z,10.55
2024-02-17T18:47:40.557Z,10.48
2024-02-17T18:50:07.942Z,10.56
2024-02-17T18:52:35.006Z,10.51
2024-02-17T18:55:04.512Z,10.43
2024-02-17T18:57:36.383Z,10.54
2024-02-17T19:00:06.495Z,10.44
2024-02-17T19:02:35.813Z,10.45
2024-02-17T19:05:02.998Z,10.37
2024-02-17T19:07:32.854Z,10.46
2024-02-17T19:10:02.112Z,10.42
2024-02-17T19:12:29.029Z,10.30
2024-02-17T19:15:00.809Z,10.33
2024-02-17T19:17:32.356Z,10.41
2024-02-17T19:20:02.153Z,10.28
2024-02-17T19:22:32.960Z,10.35
2024-02-17T19:25:00.048Z,10.20
2024-02-17T19:27:29.373Z,10.33
2024-02-17T19:29:56.519Z,10.26
2024-02-17T19:32:23.381Z,10.18
2024-02-17T19:34:54.867Z,10.30
2024-02-17T19:37:24.022Z,10.21
2024-02-17T19:39:54.092Z,10.15
2024-02-17T19:42:23.475Z,10.15
2024-02-17T19:44:53.345Z,10.10
2024-02-17T19:47:22.596Z,10.17
2024-02-17T19:49:49.666Z,10.13
2024-02-17T19:52:19.480Z,10.21
2024-02-17T19:54:50.653Z,10.03
2024-02-17T19:57:19.757Z,9.90
2024-02-17T19:59:46.772Z,10.08
2024-02-17T20:02:16.222Z,9.98
2024-02-17T20:04:48.214Z,9.91
2024-02-17T20:07:17.879Z,9.91
2024-02-17T20:09:44.921Z,9.91
2024-02-17T20:12:20.986Z,9.84
2024-02-17T20:14:50.610Z,9.83
2024-02-17T20:17:31.992Z,9.69
2024-02-17T20:20:04.527Z,9.69
2024-02-17T20:22:31.503Z,9.70
2024-02-17T20:24:59.502Z,9.45
2024-02-17T20:27:28.895Z,9.54
2024-02-17T20:29:58.157Z,9.58
2024-02-17T20:32:25.003Z,9.51
2024-02-17T20:34:54.517Z,9.45
2024-02-17T20:37:23.878Z,9.43
2024-02-17T20:39:53.318Z,9.46
2024-02-17T20:42:20.311Z,9.40
2024-02-17T20:44:49.656Z,9.39
2024-02-17T20:47:21.264Z,9.32
2024-02-17T20:49:50.947Z,9.45
2024-02-17T20:52:20.557Z,9.45
2024-02-17T20:54:52.276Z,9.37
2024-02-17T20:57:19.456Z,9.38
2024-02-17T20:59:51.251Z,9.20
2024-02-17T21:02:23.876Z,9.24
2024-02-17T21:04:53.037Z,9.21
2024-02-17T21:07:19.978Z,9.25
2024-02-17T21:09:47.417Z,9.29
2024-02-17T21:12:14.380Z,9.18
2024-02-17T21:14:48.538Z,9.13
2024-02-17T21:17:20.345Z,9.08
2024-02-17T21:19:54.641Z,9.04
2024-02-17T21:22:21.594Z,8.98
2024-02-17T21:24:50.897Z,8.87
2024-02-17T21:27:20.197Z,8.98
2024-02-17T21:29:53.923Z,8.95
2024-02-17T21:32:22.952Z,8.78
2024-02-17T21:34:49.980Z,8.87
2024-02-17T21:37:19.338Z,8.78
2024-02-17T21:39:51.895Z,8.82
2024-02-17T21:42:20.908Z,8.89
2024-02-17T21:44:57.182Z,8.72
2024-02-17T21:47:26.561Z,8.89
2024-02-17T21:49:58.549Z,8.91
2024-02-17T21:52:27.909Z,8.86
2024-02-17T21:54:54.774Z,8.90
2024-02-17T21:57:21.659Z,8.83
2024-02-17T21:59:48.454Z,8.94
2024-02-17T22:02:17.765Z,8.86
2024-02-17T22:04:44.953Z,8.85
2024-02-17T22:07:12.230Z,8.80
2024-02-17T22:09:39.175Z,8.86
2024-02-17T22:12:08.553Z,8.83
2024-02-17T22:14:40.212Z,8.75
2024-02-17T22:17:14.360Z,8.86
2024-02-17T22:19:44.205Z,8.76
2024-02-17T22:22:13.516Z,8.84
2024-02-17T22:24:42.713Z,8.76
2024-02-17T22:27:12.019Z,8.93
2024-02-17T22:29:43.769Z,8.88
2024-02-17T22:32:15.270Z,8.91
2024-02-17T22:34:42.350Z,8.92
2024-02-17T22:37:09.257Z,8.91
2024-02-17T22:39:36.251Z,8.90
2024-02-17T22:42:03.214Z,8.93
2024-02-17T22:44:32.304Z,8.91
2024-02-17T22:47:01.685Z,9.00
2024-02-17T22:49:30.881Z,8.98
2024-02-17T22:52:04.550Z,9.07
2024-02-17T22:54:33.539Z,9.03
2024-02-17T22:57:00.455Z,8.97
2024-02-17T22:59:31.770Z,8.93
2024-02-17T23:02:00.993Z,9.12
2024-02-17T23:04:30.361Z,8.98
2024-02-17T23:06:59.346Z,9.06
2024-02-17T23:09:28.836Z,9.12
2024-02-17T23:11:55.867Z,9.15
2024-02-17T23:14:22.767Z,9.16
2024-02-17T23:16:49.649Z,9.21
2024-02-17T23:19:25.996Z,9.13
2024-02-17T23:21:55.439Z,9.13
2024-02-17T23:24:23.890Z,9.18
2024-02-17T23:26:51.495Z,9.14
2024-02-17T23:29:20.636Z,9.11
2024-02-17T23:31:54.638Z,9.18
2024-02-17T23:34:24.256Z,9.20
2024-02-17T23:36:53.598Z,9.16
2024-02-17T23:39:22.765Z,9.23
2024-02-17T23:41:49.573Z,9.16
2024-02-17T23:44:18.695Z,9.12
2024-02-17T23:46:48.278Z,9.20
2024-02-17T23:49:17.535Z,9.08
2024-02-17T23:51:49.221Z,9.19
2024-02-17T23:54:23.308Z,9.20
2024-02-17T23:56:52.591Z,9.15
2024-02-17T23:59:19.569Z,9.16
